Time;durP1;ratioP1;P1;durP2;ratioP2;P2;SDS_P1;SDS_P2;PMS_P1;PMS_P2;Temp;Humidity;BMP_temperature;BMP_pressure;BME280_temperature;BME280_humidity;BME280_pressure;Samples;Min_cycle;Max_cycle;Signal;HPM_P1;HPM_P2
2023/01/01 00:00:05;;;;;;;11.20;8.50;;;;;;;15.90;61.78;100520.94;5014052;28;20389;-74
2023/01/01 00:02:30;;;;;;;14.52;9.82;;;;;;;15.87;61.95;100520.66;5013439;28;20503;-74
2023/01/01 00:04:55;;;;;;;13.77;8.73;;;;;;;15.87;61.99;100520.66;5006182;28;20846;-74
2023/01/01 00:07:21;;;;;;;12.07;8.60;;;;;;;15.86;61.87;100511.63;5010238;28;20458;-75
2023/01/01 00:12:31;;;;;;;9.05;6.97;;;;;;;15.90;61.80;100517.38;5002987;28;20405;-74
2023/01/01 00:14:56;;;;;;;9.57;6.22;;;;;;;15.92;61.51;100509.69;5009284;28;20397;-74
2023/01/01 00:17:21;;;;;;;11.40;6.73;;;;;;;15.89;61.70;100513.00;5012397;28;20879;-74
2023/01/01 00:19:47;;;;;;;20.05;11.10;;;;;;;15.86;61.84;100517.09;5013160;28;20393;-74
2023/01/01 00:22:12;;;;;;;11.00;7.93;;;;;;;15.88;61.61;100519.53;5011935;28;20527;-74
2023/01/01 00:24:37;;;;;;;10.03;6.30;;;;;;;15.89;61.64;100523.91;5013629;28;20400;-74
2023/01/01 00:27:02;;;;;;;11.35;7.13;;;;;;;15.83;61.83;100519.56;5013473;28;20487;-74
2023/01/01 00:29:28;;;;;;;9.67;7.90;;;;;;;15.83;61.99;100523.13;5013423;28;20385;-74
2023/01/01 00:31:53;;;;;;;12.83;8.57;;;;;;;15.81;61.86;100516.28;5013294;28;20412;-74
2023/01/01 00:34:18;;;;;;;21.63;13.48;;;;;;;15.78;62.05;100523.13;5013415;28;20407;-74
2023/01/01 00:36:43;;;;;;;14.87;9.30;;;;;;;15.74;62.01;100523.97;5013301;28;20464;-74
2023/01/01 00:39:09;;;;;;;15.30;9.80;;;;;;;15.71;62.17;100524.53;5013198;28;20941;-74
2023/01/01 00:41:34;;;;;;;19.37;10.40;;;;;;;15.65;62.19;100515.50;5013398;28;20393;-74
2023/01/01 00:43:59;;;;;;;15.40;10.43;;;;;;;15.62;62.23;100515.25;5013269;28;20884;-74
2023/01/01 00:46:24;;;;;;;11.50;8.07;;;;;;;15.55;62.24;100516.34;5011994;28;20389;-74
2023/01/01 00:48:50;;;;;;;10.73;7.37;;;;;;;15.53;62.54;100523.19;5013166;28;20450;-74
2023/01/01 00:51:15;;;;;;;8.43;6.70;;;;;;;15.47;62.42;100533.28;5013024;28;20397;-74
2023/01/01 00:53:40;;;;;;;8.27;6.90;;;;;;;15.41;62.86;100528.91;5012825;28;20409;-74
2023/01/01 00:56:06;;;;;;;11.03;6.87;;;;;;;15.36;62.89;100525.38;5013082;28;20385;-74
2023/01/01 00:58:31;;;;;;;7.45;6.10;;;;;;;15.31;63.20;100528.91;5012924;28;20404;-74
2023/01/01 01:00:57;;;;;;;9.07;6.53;;;;;;;15.27;63.29;100524.28;5013053;28;20393;-74
2023/01/01 01:03:29;;;;;;;8.13;6.53;;;;;;;15.22;63.39;100540.66;5012867;28;20412;-74
2023/01/01 01:06:03;;;;;;;9.05;6.45;;;;;;;15.15;63.72;100537.41;5011613;28;20914;-74
2023/01/01 01:08:33;;;;;;;8.52;5.95;;;;;;;15.09;64.00;100536.56;5012624;28;20385;-74
2023/01/01 01:11:13;;;;;;;8.85;5.85;;;;;;;15.09;64.00;100536.56;5012847;28;20406;-74
2023/01/01 01:13:39;;;;;;;10.18;6.22;;;;;;;15.05;64.06;100544.47;5012737;28;20864;-74
2023/01/01 01:16:17;;;;;;;12.32;7.63;;;;;;;15.03;64.20;100552.13;5012322;28;20424;-74
2023/01/01 01:18:43;;;;;;;10.48;7.18;;;;;;;14.99;64.24;100552.94;4999712;28;20385;-74
2023/01/01 01:21:09;;;;;;;8.07;7.03;;;;;;;14.97;64.29;100558.69;5012335;28;20799;-74
2023/01/01 01:23:35;;;;;;;10.67;6.40;;;;;;;14.96;64.64;100559.75;5012479;28;20494;-74
2023/01/01 01:26:11;;;;;;;7.57;5.87;;;;;;;14.95;64.49;100566.28;5012302;28;20483;-74
2023/01/01 01:28:36;;;;;;;7.22;5.53;;;;;;;14.92;64.73;100566.84;5012460;28;20396;-74
2023/01/01 01:31:02;;;;;;;9.25;6.47;;;;;;;14.93;64.75;100573.13;5012410;28;20760;-74
2023/01/01 01:33:28;;;;;;;6.77;5.87;;;;;;;14.92;64.91;100572.28;5012717;28;20761;-74
2023/01/01 01:36:14;;;;;;;7.10;4.70;;;;;;;14.92;64.81;100576.94;5012833;28;20385;-74
2023/01/01 01:38:40;;;;;;;5.97;4.80;;;;;;;14.92;64.86;100580.47;5012750;28;20401;-74
2023/01/01 01:41:06;;;;;;;5.63;4.20;;;;;;;14.94;64.71;100585.69;5012297;28;20883;-75
2023/01/01 01:43:31;;;;;;;7.15;4.25;;;;;;;14.96;64.73;100587.03;4994505;28;20447;-74
2023/01/01 01:46:07;;;;;;;7.50;5.17;;;;;;;14.98;64.89;100590.31;5012282;28;20495;-74
2023/01/01 01:48:39;;;;;;;5.20;3.90;;;;;;;14.96;64.83;100583.50;5010921;28;20418;-74
2023/01/01 01:51:05;;;;;;;4.47;4.05;;;;;;;14.95;64.73;100585.41;5012211;28;20432;-74
2023/01/01 01:53:33;;;;;;;5.50;3.92;;;;;;;14.94;64.79;100578.31;5012077;28;20388;-74
2023/01/01 01:56:02;;;;;;;6.32;4.07;;;;;;;14.92;64.83;100583.22;5012336;28;20416;-74
2023/01/01 01:58:29;;;;;;;6.40;3.17;;;;;;;14.89;64.88;100575.56;5012007;28;20891;-74
2023/01/01 02:00:55;;;;;;;4.35;3.80;;;;;;;14.90;64.95;100590.03;5012275;28;20407;-74
2023/01/01 02:03:48;;;;;;;3.47;3.00;;;;;;;14.90;64.85;100585.41;5011675;28;20413;-75
2023/01/01 02:06:15;;;;;;;5.35;3.50;;;;;;;14.90;64.85;100579.13;5012113;28;20392;-75
2023/01/01 02:08:40;;;;;;;2.67;2.47;;;;;;;14.90;64.73;100570.94;5012251;28;20403;-75
2023/01/01 02:11:05;;;;;;;4.38;2.60;;;;;;;14.98;64.20;100567.69;5012305;28;20480;-75
2023/01/01 02:13:31;;;;;;;3.03;2.63;;;;;;;15.01;64.15;100562.50;5011873;28;20397;-74
2023/01/01 02:16:09;;;;;;;3.28;2.65;;;;;;;15.02;64.14;100561.41;5011948;28;20743;-74
2023/01/01 02:18:45;;;;;;;4.78;2.20;;;;;;;14.97;64.18;100558.69;5011873;28;20392;-75
2023/01/01 02:21:15;;;;;;;5.13;2.42;;;;;;;14.99;64.38;100556.47;5010876;28;20392;-75
2023/01/01 02:24:14;;;;;;;3.30;3.00;;;;;;;15.03;64.05;100549.41;5011681;28;20420;-75
2023/01/01 02:26:49;;;;;;;5.75;3.30;;;;;;;15.05;64.06;100549.09;5010594;28;20401;-74
2023/01/01 02:29:33;;;;;;;6.45;2.95;;;;;;;15.10;64.23;100549.13;5010849;28;20392;-75
2023/01/01 02:32:09;;;;;;;3.08;2.85;;;;;;;15.12;63.86;100546.94;5011654;28;20417;-75
2023/01/01 02:34:39;;;;;;;4.28;3.58;;;;;;;15.16;63.74;100548.03;5011743;28;20871;-74
2023/01/01 02:37:08;;;;;;;4.53;3.55;;;;;;;15.19;63.53;100552.13;5010582;28;20404;-74
2023/01/01 02:39:38;;;;;;;5.88;3.72;;;;;;;15.18;63.40;100551.28;5011500;28;20448;-75
2023/01/01 02:42:06;;;;;;;3.60;3.15;;;;;;;15.16;63.53;100550.75;5011787;28;20405;-75
2023/01/01 02:44:35;;;;;;;5.03;3.20;;;;;;;15.22;63.20;100549.66;5011675;28;20411;-74
2023/01/01 02:47:09;;;;;;;4.25;2.80;;;;;;;15.26;63.03;100556.22;5011698;28;20389;-73
2023/01/01 02:49:40;;;;;;;5.90;3.75;;;;;;;15.26;63.01;100555.41;5011634;28;20393;-74
2023/01/01 02:52:16;;;;;;;3.95;2.58;;;;;;;15.24;62.79;100552.13;5011508;28;20447;-74
2023/01/01 02:55:01;;;;;;;3.40;2.60;;;;;;;15.29;62.70;100561.13;5011439;28;20856;-73
2023/01/01 02:57:38;;;;;;;4.78;2.65;;;;;;;15.28;62.63;100558.69;5011570;28;20914;-74
2023/01/01 03:00:46;;;;;;;3.80;3.45;;;;;;;15.34;62.13;100552.97;5011591;28;20483;-74
2023/01/01 03:03:23;;;;;;;3.88;2.20;;;;;;;15.28;62.16;100558.69;5010132;28;20428;-73
2023/01/01 03:06:22;;;;;;;3.27;2.60;;;;;;;15.27;62.18;100563.34;5011582;28;20483;-74
2023/01/01 03:09:05;;;;;;;7.20;2.72;;;;;;;15.29;62.22;100558.41;4996633;28;20408;-74
2023/01/01 03:11:49;;;;;;;3.50;2.33;;;;;;;15.35;61.95;100564.69;5011347;28;20400;-74
2023/01/01 03:14:44;;;;;;;2.47;2.13;;;;;;;15.41;61.47;100560.88;5011467;28;20759;-74
2023/01/01 03:17:25;;;;;;;1.92;1.83;;;;;;;15.38;61.53;100561.41;5014847;28;20485;-74
2023/01/01 03:19:53;;;;;;;3.10;2.67;;;;;;;15.37;61.29;100562.50;5013652;28;20450;-74
2023/01/01 03:22:22;;;;;;;2.65;1.88;;;;;;;15.35;61.23;100560.03;5013514;28;20891;-74
2023/01/01 03:24:57;;;;;;;2.88;1.92;;;;;;;15.34;61.13;100554.88;5014886;28;20867;-74
2023/01/01 03:27:30;;;;;;;2.60;1.52;;;;;;;15.32;60.97;100557.84;5013466;28;20795;-74
2023/01/01 03:29:59;;;;;;;5.00;2.23;;;;;;;15.41;60.52;100556.22;5014860;28;20489;-74
2023/01/01 03:35:19;;;;;;;3.00;1.83;;;;;;;15.38;60.25;100556.75;5014669;28;20388;-74
2023/01/01 03:37:48;;;;;;;2.55;1.90;;;;;;;15.36;60.13;100558.97;5014373;28;20736;-74
2023/01/01 03:40:17;;;;;;;1.83;1.42;;;;;;;15.42;59.91;100551.56;5014727;28;20389;-74
2023/01/01 03:42:49;;;;;;;1.75;1.65;;;;;;;15.44;59.34;100558.38;5014562;28;20408;-74
2023/01/01 03:45:21;;;;;;;3.35;2.03;;;;;;;15.43;59.27;100558.69;5014543;28;20416;-74
2023/01/01 03:47:47;;;;;;;2.60;1.40;;;;;;;15.42;59.09;100557.84;5014423;28;20812;-74
2023/01/01 03:50:13;;;;;;;2.30;1.50;;;;;;;15.51;58.71;100558.16;5014316;28;20484;-74
2023/01/01 03:53:02;;;;;;;3.13;1.50;;;;;;;15.53;58.61;100566.91;5014314;28;20480;-74
2023/01/01 03:55:35;;;;;;;2.08;1.33;;;;;;;15.51;58.56;100561.69;5012972;28;20404;-74
2023/01/01 03:58:09;;;;;;;3.50;2.10;;;;;;;15.54;58.22;100560.34;5014313;28;20389;-74
2023/01/01 04:00:39;;;;;;;1.13;1.10;;;;;;;15.56;58.25;100549.94;5014159;28;20743;-74
2023/01/01 04:03:17;;;;;;;2.25;1.30;;;;;;;15.57;58.31;100557.88;5012796;28;20405;-74
2023/01/01 04:05:43;;;;;;;3.20;1.35;;;;;;;15.60;57.94;100563.88;5012695;28;20405;-74
2023/01/01 04:08:10;;;;;;;3.63;1.30;;;;;;;15.60;58.09;100561.16;5013959;28;20399;-74
2023/01/01 04:10:40;;;;;;;1.63;1.13;;;;;;;15.57;58.08;100549.69;5014005;28;20392;-74
2023/01/01 04:13:05;;;;;;;1.40;1.30;;;;;;;15.56;58.05;100553.50;5013920;28;20423;-74
2023/01/01 04:15:32;;;;;;;4.80;1.20;;;;;;;15.60;57.92;100559.25;5013730;28;20433;-74
2023/01/01 04:17:57;;;;;;;2.45;1.73;;;;;;;15.58;57.95;100562.22;5013868;28;20408;-74
2023/01/01 04:20:24;;;;;;;1.80;1.67;;;;;;;15.60;58.23;100559.25;5013989;28;20388;-74
2023/01/01 04:22:50;;;;;;;1.73;1.20;;;;;;;15.62;58.08;100567.16;5013641;28;20488;-74
2023/01/01 04:25:16;;;;;;;2.75;1.83;;;;;;;15.58;58.24;100562.22;5013664;28;20392;-74
2023/01/01 04:27:42;;;;;;;3.75;1.20;;;;;;;15.56;58.28;100561.72;5013071;28;20425;-74
2023/01/01 04:30:10;;;;;;;3.03;1.20;;;;;;;15.57;58.31;100563.34;5012355;28;20451;-74
2023/01/01 04:32:36;;;;;;;1.50;1.00;;;;;;;15.56;58.40;100569.91;5013392;28;20412;-74
2023/01/01 04:35:02;;;;;;;2.35;1.10;;;;;;;15.59;58.07;100565.78;5013452;28;20439;-74
2023/01/01 04:37:27;;;;;;;1.80;0.90;;;;;;;15.59;58.26;100571.25;5013556;28;20393;-74
2023/01/01 04:39:53;;;;;;;2.22;0.90;;;;;;;15.61;58.20;100579.19;5013428;28;20796;-74
2023/01/01 04:42:18;;;;;;;1.17;1.10;;;;;;;15.61;58.14;100576.47;5013380;28;20401;-75
2023/01/01 04:44:43;;;;;;;2.20;1.10;;;;;;;15.58;58.04;100577.81;5013105;28;20438;-74
2023/01/01 04:47:09;;;;;;;3.37;1.77;;;;;;;15.66;57.93;100584.63;5013419;28;20397;-74
2023/01/01 04:49:34;;;;;;;2.65;1.00;;;;;;;15.64;58.02;100581.38;5013448;28;20381;-74
2023/01/01 04:51:59;;;;;;;5.30;1.03;;;;;;;15.60;58.20;100574.81;5013286;28;20393;-74
2023/01/01 04:54:25;;;;;;;3.40;1.20;;;;;;;15.61;57.96;100576.47;5013103;28;20752;-74
2023/01/01 04:56:50;;;;;;;1.20;1.10;;;;;;;15.63;57.62;100582.44;5013107;28;20751;-74
2023/01/01 04:59:15;;;;;;;1.87;1.10;;;;;;;15.63;57.86;100591.47;5012976;28;20923;-74
2023/01/01 05:01:41;;;;;;;4.20;1.00;;;;;;;15.63;57.82;100587.91;5012996;28;20400;-74
2023/01/01 05:04:06;;;;;;;1.47;1.33;;;;;;;15.63;57.84;100594.19;5012880;28;20417;-74
2023/01/01 05:06:31;;;;;;;1.13;1.03;;;;;;;15.63;57.87;100601.56;5012956;28;20423;-74
2023/01/01 05:08:58;;;;;;;1.77;1.20;;;;;;;15.64;57.80;100608.69;5013330;28;20484;-74
2023/01/01 05:11:26;;;;;;;3.17;1.53;;;;;;;15.61;57.82;100598.31;5012365;28;20760;-74
2023/01/01 05:13:53;;;;;;;2.15;1.00;;;;;;;15.60;58.04;100613.06;5012546;28;20404;-74
2023/01/01 05:16:21;;;;;;;3.05;1.30;;;;;;;15.61;57.86;100607.31;5012896;28;20420;-74
2023/01/01 05:18:47;;;;;;;1.50;1.40;;;;;;;15.60;57.97;100602.13;5012362;28;20385;-74
2023/01/01 05:21:15;;;;;;;1.35;1.15;;;;;;;15.57;57.95;100608.97;5010484;28;20751;-74
2023/01/01 05:23:41;;;;;;;2.13;1.67;;;;;;;15.53;58.22;100610.59;5010763;28;20776;-74
2023/01/01 05:26:12;;;;;;;3.17;2.20;;;;;;;15.53;58.35;100608.69;5012103;28;20391;-74
2023/01/01 05:28:37;;;;;;;3.25;1.65;;;;;;;15.53;58.06;100614.16;5011013;28;20472;-74
2023/01/01 05:31:09;;;;;;;3.65;1.60;;;;;;;15.57;57.96;100619.91;5010387;28;20500;-74
2023/01/01 05:33:35;;;;;;;0.83;0.83;;;;;;;15.57;58.10;100617.16;5012578;28;20515;-74
2023/01/01 05:36:02;;;;;;;1.92;1.23;;;;;;;15.54;58.24;100623.16;5012473;28;20491;-74
2023/01/01 05:38:27;;;;;;;2.07;1.30;;;;;;;15.54;58.33;100625.91;5011770;28;20725;-74
2023/01/01 05:40:52;;;;;;;4.73;1.50;;;;;;;15.51;58.49;100629.97;5010956;28;20392;-74
2023/01/01 05:43:18;;;;;;;3.97;1.50;;;;;;;15.53;58.23;100624.25;5012541;28;20416;-74
2023/01/01 05:45:43;;;;;;;4.90;1.45;;;;;;;15.54;58.34;100625.91;5011292;28;20412;-74
2023/01/01 05:48:10;;;;;;;4.23;1.40;;;;;;;15.54;58.23;100632.16;5011013;28;20397;-74
2023/01/01 05:50:35;;;;;;;1.98;1.20;;;;;;;15.56;58.18;100631.91;5012331;28;20397;-74
2023/01/01 05:53:00;;;;;;;1.47;1.00;;;;;;;15.53;58.35;100637.91;5012073;28;20408;-74
2023/01/01 05:55:25;;;;;;;2.05;1.25;;;;;;;15.49;58.31;100631.34;5012064;28;20397;-74
2023/01/01 05:57:51;;;;;;;2.83;1.00;;;;;;;15.48;58.36;100632.44;5012129;28;20397;-74
2023/01/01 06:00:17;;;;;;;3.13;1.48;;;;;;;15.47;58.38;100642.53;5012095;28;20404;-73
2023/01/01 06:02:42;;;;;;;1.67;1.30;;;;;;;15.43;58.71;100633.25;5011953;28;20800;-74
2023/01/01 06:05:07;;;;;;;2.83;1.50;;;;;;;15.41;58.80;100634.59;5012086;28;20389;-74
2023/01/01 06:07:33;;;;;;;2.13;1.30;;;;;;;15.41;58.83;100640.06;5011934;28;20803;-74
2023/01/01 06:09:58;;;;;;;3.60;1.47;;;;;;;15.39;58.75;100648.53;5011983;28;20385;-74
2023/01/01 06:12:23;;;;;;;1.50;1.40;;;;;;;15.39;58.74;100651.25;5011940;28;20860;-74
2023/01/01 06:14:48;;;;;;;2.43;1.73;;;;;;;15.41;58.78;100657.25;5011919;28;20393;-74
2023/01/01 06:17:14;;;;;;;2.27;1.40;;;;;;;15.40;58.63;100649.34;5010621;28;20405;-74
2023/01/01 06:19:39;;;;;;;4.53;1.73;;;;;;;15.38;58.67;100640.59;5010701;28;20883;-74
2023/01/01 06:22:04;;;;;;;3.00;1.30;;;;;;;15.37;58.84;100653.44;5011910;28;20400;-74
2023/01/01 06:24:30;;;;;;;1.23;1.20;;;;;;;15.38;58.83;100648.78;5011803;28;20811;-74
2023/01/01 06:26:55;;;;;;;2.83;1.13;;;;;;;15.40;58.65;100643.88;5012011;28;20992;-74
2023/01/01 06:29:20;;;;;;;3.70;1.13;;;;;;;15.38;58.77;100641.41;5012151;28;20443;-76
2023/01/01 06:31:45;;;;;;;1.93;1.13;;;;;;;15.37;58.68;100644.44;5011785;28;20413;-74
2023/01/01 06:34:11;;;;;;;3.20;1.20;;;;;;;15.33;58.87;100648.78;5011951;28;21017;-74
2023/01/01 06:36:36;;;;;;;1.63;1.30;;;;;;;15.31;59.11;100638.13;5011749;28;20397;-74
2023/01/01 06:39:02;;;;;;;4.13;1.43;;;;;;;15.30;59.08;100641.16;5011763;28;20438;-74
2023/01/01 06:41:28;;;;;;;4.17;1.27;;;;;;;15.32;59.01;100658.06;5011748;28;20463;-74
2023/01/01 06:43:54;;;;;;;4.50;1.70;;;;;;;15.36;58.98;100653.72;5011833;28;20420;-74
2023/01/01 06:46:34;;;;;;;1.52;1.42;;;;;;;15.33;58.72;100657.81;5011618;28;20485;-74
2023/01/01 06:49:04;;;;;;;2.13;0.88;;;;;;;15.37;58.47;100658.91;5011718;28;20401;-74
2023/01/01 06:51:38;;;;;;;3.42;1.10;;;;;;;15.36;58.63;100661.91;5013462;28;20771;-74
2023/01/01 06:54:04;;;;;;;5.82;1.55;;;;;;;15.35;58.76;100668.44;5015463;28;20428;-74
2023/01/01 06:56:30;;;;;;;1.67;1.33;;;;;;;15.32;58.82;100667.06;5015571;28;20392;-74
2023/01/01 06:58:56;;;;;;;3.72;1.00;;;;;;;15.27;59.11;100661.63;5014938;28;20507;-74
2023/01/01 07:01:23;;;;;;;2.50;1.25;;;;;;;15.28;58.94;100667.91;5015299;28;20436;-74
2023/01/01 07:03:54;;;;;;;4.60;1.30;;;;;;;15.27;58.82;100675.28;5015116;28;20412;-74
2023/01/01 07:06:19;;;;;;;1.40;1.13;;;;;;;15.27;58.89;100675.28;5014370;28;20400;-74
2023/01/01 07:08:45;;;;;;;4.53;1.40;;;;;;;15.27;59.00;100680.75;5014107;28;20508;-74
2023/01/01 07:11:10;;;;;;;3.40;1.20;;;;;;;15.28;58.86;100687.81;5015041;28;20393;-74
2023/01/01 07:13:35;;;;;;;8.47;1.50;;;;;;;15.27;58.90;100693.56;5015076;28;20902;-74
2023/01/01 07:16:01;;;;;;;4.23;1.50;;;;;;;15.26;58.89;100692.75;5015088;28;20385;-74
2023/01/01 07:18:26;;;;;;;2.70;1.27;;;;;;;15.28;58.67;100704.19;5014961;28;20393;-74
2023/01/01 07:20:54;;;;;;;2.90;1.10;;;;;;;15.30;58.71;100715.69;5013680;28;20409;-74
2023/01/01 07:23:20;;;;;;;3.35;1.15;;;;;;;15.30;58.63;100717.59;5014958;28;20452;-74
2023/01/01 07:25:48;;;;;;;2.50;0.90;;;;;;;15.30;58.88;100720.31;5013599;28;20421;-74
2023/01/01 07:28:13;;;;;;;1.60;1.23;;;;;;;15.26;59.06;100727.41;5014726;28;20450;-74
2023/01/01 07:30:38;;;;;;;2.47;1.43;;;;;;;15.21;59.04;100728.22;5013141;28;20397;-74
2023/01/01 07:33:04;;;;;;;3.13;1.30;;;;;;;15.16;59.46;100733.66;5011850;28;20841;-74
2023/01/01 07:35:29;;;;;;;2.37;1.40;;;;;;;15.12;59.62;100739.91;5013946;28;20409;-75
2023/01/01 07:37:54;;;;;;;2.83;1.57;;;;;;;15.03;60.06;100740.44;5011048;28;20417;-74
2023/01/01 07:40:19;;;;;;;2.90;1.60;;;;;;;14.95;60.47;100732.75;5014134;28;20426;-75
2023/01/01 07:42:45;;;;;;;3.67;1.57;;;;;;;14.90;60.74;100740.13;5013388;28;20405;-75
2023/01/01 07:45:13;;;;;;;2.10;1.20;;;;;;;14.87;60.90;100748.84;5010497;28;20848;-74
2023/01/01 07:47:38;;;;;;;2.97;1.50;;;;;;;14.84;61.04;100757.56;5011391;28;20438;-74
2023/01/01 07:50:04;;;;;;;2.23;1.20;;;;;;;14.83;61.33;100758.63;5013736;28;20455;-75
2023/01/01 07:52:29;;;;;;;2.38;1.70;;;;;;;14.78;61.49;100759.44;5012445;28;20409;-74
2023/01/01 07:54:55;;;;;;;3.27;1.43;;;;;;;14.78;61.59;100762.19;5014346;28;20407;-74
2023/01/01 07:57:20;;;;;;;2.00;1.20;;;;;;;14.76;61.50;100766.22;5011934;28;20757;-74
2023/01/01 07:59:45;;;;;;;3.23;1.53;;;;;;;14.76;61.62;100768.97;5014128;28;20389;-75
2023/01/01 08:02:11;;;;;;;4.67;1.63;;;;;;;14.77;61.80;100778.78;5013125;28;20404;-75
2023/01/01 08:04:37;;;;;;;2.63;1.70;;;;;;;14.76;61.62;100777.16;5013954;28;20444;-75
2023/01/01 08:07:02;;;;;;;1.97;1.77;;;;;;;14.75;61.88;100781.78;5012679;28;20412;-74
2023/01/01 08:09:28;;;;;;;3.43;1.77;;;;;;;14.76;61.78;100780.69;5013893;28;20397;-74
2023/01/01 08:11:53;;;;;;;4.80;2.67;;;;;;;14.75;62.17;100787.22;5013774;28;20425;-74
2023/01/01 08:14:18;;;;;;;12.52;7.07;;;;;;;14.75;62.27;100780.97;5013904;28;20891;-74
2023/01/01 08:16:44;;;;;;;13.80;7.60;;;;;;;14.71;62.18;100785.31;5012314;28;20424;-74
2023/01/01 08:19:09;;;;;;;7.10;3.53;;;;;;;14.69;62.42;100791.03;4994551;28;20420;-75
2023/01/01 08:21:34;;;;;;;4.13;2.80;;;;;;;14.71;62.28;100788.88;5013671;28;20832;-75
2023/01/01 08:23:59;;;;;;;6.37;2.80;;;;;;;14.72;62.25;100801.41;5013608;28;20416;-74
2023/01/01 08:26:30;;;;;;;5.17;3.20;;;;;;;14.71;62.57;100798.94;5013343;28;20412;-74
2023/01/01 08:28:57;;;;;;;3.30;2.58;;;;;;;14.73;62.44;100800.31;5013449;28;20848;-74
2023/01/01 08:31:22;;;;;;;4.57;2.28;;;;;;;14.75;62.74;100797.34;5013570;28;20417;-74
2023/01/01 08:33:48;;;;;;;2.83;2.30;;;;;;;14.81;62.49;100790.84;5013412;28;20401;-74
2023/01/01 08:36:15;;;;;;;3.90;2.77;;;;;;;14.93;62.18;100797.72;5012929;28;20895;-75
2023/01/01 08:38:40;;;;;;;4.77;2.70;;;;;;;15.03;62.05;100802.41;5011862;28;20479;-75
2023/01/01 08:41:05;;;;;;;15.40;7.33;;;;;;;15.04;62.10;100799.41;5011581;28;20825;-75
2023/01/01 08:43:31;;;;;;;15.80;8.33;;;;;;;15.13;62.19;100804.34;5014958;28;20420;-74
2023/01/01 08:45:56;;;;;;;6.97;4.20;;;;;;;15.33;61.43;100802.53;5010461;28;20419;-74
2023/01/01 08:48:21;;;;;;;6.37;2.60;;;;;;;15.68;60.48;100807.28;5011446;28;20408;-74
2023/01/01 08:50:53;;;;;;;6.57;4.13;;;;;;;15.77;60.45;100799.41;5012402;28;20412;-75
2023/01/01 08:53:18;;;;;;;6.23;3.47;;;;;;;15.66;60.36;100798.56;5006615;28;20426;-74
2023/01/01 08:55:44;;;;;;;4.63;2.20;;;;;;;15.59;60.47;100803.44;5008179;28;20439;-75
2023/01/01 08:58:09;;;;;;;5.50;2.07;;;;;;;15.47;60.91;100808.31;5004414;28;20416;-75
2023/01/01 09:00:34;;;;;;;2.83;2.28;;;;;;;15.36;61.05;100803.91;5001291;28;20435;-75
2023/01/01 09:03:00;;;;;;;6.10;2.63;;;;;;;15.38;61.03;100798.97;5009722;28;20427;-75
2023/01/01 09:05:25;;;;;;;4.07;2.25;;;;;;;15.48;61.00;100799.88;5004661;28;20408;-74
2023/01/01 09:07:50;;;;;;;5.93;2.43;;;;;;;15.43;61.05;100799.00;5009023;28;20393;-74
2023/01/01 09:10:15;;;;;;;3.47;2.00;;;;;;;15.36;61.26;100810.19;5011760;28;20412;-74
2023/01/01 09:12:41;;;;;;;2.97;1.92;;;;;;;15.36;61.31;100801.16;5010427;28;20445;-74
2023/01/01 09:15:13;;;;;;;2.67;1.90;;;;;;;15.40;61.19;100799.56;5011152;28;20440;-74
2023/01/01 09:17:38;;;;;;;2.97;1.87;;;;;;;15.51;61.06;100802.06;5011307;28;20540;-75
2023/01/01 09:20:04;;;;;;;5.97;2.07;;;;;;;15.64;60.96;100794.47;5014987;28;20429;-75
2023/01/01 09:22:29;;;;;;;3.50;1.48;;;;;;;15.72;60.80;100808.41;5016787;28;20512;-74
2023/01/01 09:24:54;;;;;;;3.00;1.60;;;;;;;15.80;60.57;100813.34;5011236;28;20424;-75
2023/01/01 09:27:20;;;;;;;2.73;1.67;;;;;;;15.90;60.36;100805.16;5011287;28;20400;-74
2023/01/01 09:29:45;;;;;;;4.85;2.10;;;;;;;15.95;59.98;100810.63;5011807;28;20397;-74
2023/01/01 09:32:10;;;;;;;5.03;1.93;;;;;;;15.86;60.40;100823.19;5006342;28;20421;-74
2023/01/01 09:34:35;;;;;;;3.43;1.87;;;;;;;15.75;60.83;100821.53;5005418;28;20413;-75
2023/01/01 09:37:01;;;;;;;5.90;1.77;;;;;;;15.75;60.87;100835.19;5010066;28;20444;-75
2023/01/01 09:39:26;;;;;;;3.60;1.60;;;;;;;15.76;60.84;100831.38;5002812;28;20906;-74
2023/01/01 09:42:14;;;;;;;3.53;1.90;;;;;;;15.79;60.96;100836.28;5008027;28;20451;-74
2023/01/01 09:45:15;;;;;;;4.68;1.75;;;;;;;15.92;60.77;100843.97;5006507;28;20432;-74
2023/01/01 09:47:52;;;;;;;3.35;1.90;;;;;;;16.01;60.46;100839.59;5010038;28;20878;-74
2023/01/01 09:50:24;;;;;;;2.10;1.60;;;;;;;16.16;60.13;100832.53;5001109;28;20389;-74
2023/01/01 09:52:53;;;;;;;3.42;1.80;;;;;;;16.38;59.62;100831.16;5010634;28;20401;-74
2023/01/01 09:55:33;;;;;;;3.22;1.70;;;;;;;16.51;59.36;100836.06;5008488;28;20748;-76
2023/01/01 09:57:59;;;;;;;3.38;1.67;;;;;;;16.55;59.05;100839.94;5013439;28;20467;-74
2023/01/01 10:00:25;;;;;;;4.90;1.57;;;;;;;16.64;58.87;100842.09;5015639;28;20466;-75
2023/01/01 10:03:11;;;;;;;2.10;1.83;;;;;;;16.81;58.22;100845.34;5012639;28;20408;-74
2023/01/01 10:06:01;;;;;;;1.88;1.35;;;;;;;17.17;56.95;100854.31;5011256;28;20421;-75
2023/01/01 10:08:54;;;;;;;1.30;1.20;;;;;;;17.51;55.69;100853.38;5010364;28;20950;-74
2023/01/01 10:11:30;;;;;;;5.13;1.30;;;;;;;17.04;56.53;100840.13;5009022;28;20400;-74
2023/01/01 10:13:58;;;;;;;1.97;1.37;;;;;;;16.83;57.39;100838.50;5009913;28;20482;-75
2023/01/01 10:16:33;;;;;;;3.33;1.20;;;;;;;16.72;57.57;100834.16;5011098;28;20810;-75
2023/01/01 10:19:11;;;;;;;2.00;1.60;;;;;;;16.65;57.70;100832.81;5010093;28;20470;-75
2023/01/01 10:21:39;;;;;;;3.90;1.52;;;;;;;16.72;57.60;100844.28;5011865;28;20420;-74
2023/01/01 10:24:24;;;;;;;2.88;1.60;;;;;;;16.81;56.92;100843.44;5009428;28;20456;-75
2023/01/01 10:26:52;;;;;;;2.25;1.92;;;;;;;16.91;56.96;100839.88;5015925;28;20492;-75
2023/01/01 10:29:27;;;;;;;3.22;1.83;;;;;;;17.04;56.27;100831.06;5014231;28;20926;-74
2023/01/01 10:31:55;;;;;;;2.25;1.50;;;;;;;17.15;55.94;100823.66;5013901;28;20895;-74
2023/01/01 10:34:27;;;;;;;2.83;1.03;;;;;;;17.10;56.20;100821.72;5013811;28;20409;-74
2023/01/01 10:36:55;;;;;;;2.25;1.50;;;;;;;17.00;56.25;100811.63;5014316;28;20739;-75
2023/01/01 10:39:21;;;;;;;2.28;1.40;;;;;;;16.94;56.29;100812.75;5012605;28;20416;-74
2023/01/01 10:41:47;;;;;;;5.57;2.00;;;;;;;16.93;56.16;100821.22;5014494;28;20883;-74
2023/01/01 10:44:14;;;;;;;4.67;2.17;;;;;;;16.93;55.79;100813.03;5013594;28;20421;-74
2023/01/01 10:46:45;;;;;;;4.25;1.77;;;;;;;16.99;55.49;100807.25;5014057;28;20404;-74
2023/01/01 10:49:12;;;;;;;5.20;1.55;;;;;;;17.05;54.86;100808.91;5012881;28;20428;-75
2023/01/01 10:51:43;;;;;;;3.13;1.52;;;;;;;17.03;54.65;100799.31;5015210;28;20393;-75
2023/01/01 10:54:27;;;;;;;3.05;2.22;;;;;;;17.00;54.36;100803.44;5011422;28;20470;-75
2023/01/01 10:56:53;;;;;;;5.53;1.73;;;;;;;17.02;54.49;100801.25;5012708;28;20497;-75
2023/01/01 10:59:34;;;;;;;2.90;1.80;;;;;;;17.06;54.26;100793.25;5012045;28;20459;-74
2023/01/01 11:02:24;;;;;;;4.28;1.45;;;;;;;17.00;54.67;100792.47;5026856;28;20411;-75
2023/01/01 11:04:51;;;;;;;5.35;1.70;;;;;;;16.95;54.99;100788.94;5003871;28;20839;-75
2023/01/01 11:07:29;;;;;;;3.45;1.90;;;;;;;16.93;55.28;100794.69;5015096;28;20392;-75
2023/01/01 11:09:59;;;;;;;4.97;1.45;;;;;;;16.96;55.57;100785.09;5006646;28;20478;-74
2023/01/01 11:12:30;;;;;;;5.35;2.03;;;;;;;16.96;55.54;100788.66;5001503;28;20415;-74
2023/01/01 11:14:58;;;;;;;5.40;1.83;;;;;;;17.06;55.23;100774.09;4997994;28;20424;-73
2023/01/01 11:17:29;;;;;;;5.07;1.90;;;;;;;17.17;55.20;100775.69;4999597;28;20423;-76
2023/01/01 11:19:57;;;;;;;5.30;1.73;;;;;;;17.22;54.91;100769.41;5001736;28;20410;-74
2023/01/01 11:22:47;;;;;;;7.83;1.50;;;;;;;17.31;54.38;100756.75;5003676;28;20420;-75
2023/01/01 11:25:21;;;;;;;2.40;1.67;;;;;;;17.38;54.25;100760.00;5008779;28;20424;-75
2023/01/01 11:27:48;;;;;;;5.30;1.57;;;;;;;17.40;54.08;100755.88;5009598;28;20475;-74
2023/01/01 11:30:22;;;;;;;2.75;1.50;;;;;;;17.45;54.04;100755.81;5007541;28;20401;-75
2023/01/01 11:32:50;;;;;;;3.90;2.10;;;;;;;17.42;53.70;100759.13;5002257;28;20430;-75
2023/01/01 11:35:22;;;;;;;2.92;1.65;;;;;;;17.38;53.74;100752.59;5011137;28;20776;-75
2023/01/01 11:37:49;;;;;;;5.00;1.92;;;;;;;17.37;53.18;100747.38;5008475;28;20413;-75